sensor_id;sensor_type;location;lat;lon;timestamp;P1;durP1;ratioP1;P2;durP2;ratioP2
39680;SDS011;26327;42.550;23.120;2023-03-24T05:39:03;102.53;;;63.17;;
39680;SDS011;26327;42.550;23.120;2023-03-24T05:41:29;78.95;;;45.50;;
39680;SDS011;26327;42.550;23.120;2023-03-24T05:43:54;72.70;;;39.13;;
39680;SDS011;26327;42.550;23.120;2023-03-24T05:46:19;52.78;;;28.85;;
39680;SDS011;26327;42.550;23.120;2023-03-24T05:48:45;39.85;;;23.40;;
39680;SDS011;26327;42.550;23.120;2023-03-24T05:51:10;41.40;;;23.13;;
39680;SDS011;26327;42.550;23.120;2023-03-24T05:53:36;37.45;;;18.42;;
39680;SDS011;26327;42.550;23.120;2023-03-24T05:56:01;28.95;;;16.98;;
39680;SDS011;26327;42.550;23.120;2023-03-24T05:58:27;27.85;;;13.98;;
39680;SDS011;26327;42.550;23.120;2023-03-24T06:00:52;23.25;;;12.57;;
39680;SDS011;26327;42.550;23.120;2023-03-24T06:03:18;18.50;;;11.55;;
39680;SDS011;26327;42.550;23.120;2023-03-24T06:05:44;17.55;;;11.15;;
39680;SDS011;26327;42.550;23.120;2023-03-24T06:08:10;18.45;;;8.98;;
39680;SDS011;26327;42.550;23.120;2023-03-24T06:10:36;17.25;;;8.45;;
39680;SDS011;26327;42.550;23.120;2023-03-24T06:13:01;21.10;;;10.25;;
39680;SDS011;26327;42.550;23.120;2023-03-24T06:15:27;27.65;;;14.88;;
39680;SDS011;26327;42.550;23.120;2023-03-24T06:17:54;26.42;;;16.88;;
39680;SDS011;26327;42.550;23.120;2023-03-24T06:20:20;23.35;;;14.90;;
39680;SDS011;26327;42.550;23.120;2023-03-24T06:22:46;24.52;;;15.07;;
39680;SDS011;26327;42.550;23.120;2023-03-24T06:25:12;24.55;;;16.35;;
39680;SDS011;26327;42.550;23.120;2023-03-24T06:27:43;24.35;;;17.20;;
39680;SDS011;26327;42.550;23.120;2023-03-24T06:30:13;23.00;;;14.70;;
39680;SDS011;26327;42.550;23.120;2023-03-24T06:32:40;21.42;;;13.70;;
39680;SDS011;26327;42.550;23.120;2023-03-24T06:35:07;20.83;;;13.13;;
39680;SDS011;26327;42.550;23.120;2023-03-24T06:37:32;24.27;;;14.05;;
39680;SDS011;26327;42.550;23.120;2023-03-24T06:39:58;32.83;;;29.35;;
39680;SDS011;26327;42.550;23.120;2023-03-24T06:42:24;30.23;;;20.80;;
39680;SDS011;26327;42.550;23.120;2023-03-24T06:44:51;32.83;;;27.58;;
39680;SDS011;26327;42.550;23.120;2023-03-24T06:47:16;39.83;;;20.40;;
39680;SDS011;26327;42.550;23.120;2023-03-24T06:49:42;29.98;;;18.15;;
39680;SDS011;26327;42.550;23.120;2023-03-24T06:52:07;26.10;;;17.77;;
39680;SDS011;26327;42.550;23.120;2023-03-24T06:54:33;31.75;;;19.98;;
39680;SDS011;26327;42.550;23.120;2023-03-24T06:56:58;30.63;;;19.35;;
39680;SDS011;26327;42.550;23.120;2023-03-24T06:59:23;36.50;;;21.67;;
39680;SDS011;26327;42.550;23.120;2023-03-24T07:01:49;29.02;;;19.48;;
39680;SDS011;26327;42.550;23.120;2023-03-24T07:04:15;34.15;;;17.95;;
39680;SDS011;26327;42.550;23.120;2023-03-24T07:06:41;35.97;;;18.73;;
39680;SDS011;26327;42.550;23.120;2023-03-24T07:09:07;30.88;;;20.08;;
39680;SDS011;26327;42.550;23.120;2023-03-24T07:11:33;51.72;;;34.75;;
39680;SDS011;26327;42.550;23.120;2023-03-24T07:13:58;39.53;;;25.10;;
39680;SDS011;26327;42.550;23.120;2023-03-24T07:16:24;29.33;;;18.90;;
39680;SDS011;26327;42.550;23.120;2023-03-24T07:18:49;29.23;;;16.98;;
39680;SDS011;26327;42.550;23.120;2023-03-24T07:21:15;38.63;;;18.88;;
39680;SDS011;26327;42.550;23.120;2023-03-24T07:23:40;33.17;;;18.15;;
39680;SDS011;26327;42.550;23.120;2023-03-24T07:26:06;40.25;;;17.27;;
39680;SDS011;26327;42.550;23.120;2023-03-24T07:28:31;39.05;;;20.15;;
39680;SDS011;26327;42.550;23.120;2023-03-24T07:30:56;40.85;;;19.48;;
39680;SDS011;26327;42.550;23.120;2023-03-24T07:33:26;40.83;;;21.90;;
39680;SDS011;26327;42.550;23.120;2023-03-24T07:35:54;32.47;;;19.95;;
39680;SDS011;26327;42.550;23.120;2023-03-24T07:38:21;30.73;;;17.00;;
39680;SDS011;26327;42.550;23.120;2023-03-24T07:40:47;36.17;;;18.08;;
39680;SDS011;26327;42.550;23.120;2023-03-24T07:43:12;39.90;;;18.40;;
39680;SDS011;26327;42.550;23.120;2023-03-24T07:45:38;37.13;;;16.95;;
39680;SDS011;26327;42.550;23.120;2023-03-24T07:48:03;31.17;;;15.15;;
39680;SDS011;26327;42.550;23.120;2023-03-24T07:50:29;30.15;;;13.77;;
39680;SDS011;26327;42.550;23.120;2023-03-24T07:52:55;26.17;;;12.60;;
39680;SDS011;26327;42.550;23.120;2023-03-24T07:55:21;29.48;;;13.43;;
39680;SDS011;26327;42.550;23.120;2023-03-24T07:57:47;31.55;;;14.18;;
39680;SDS011;26327;42.550;23.120;2023-03-24T08:00:13;32.90;;;13.93;;
39680;SDS011;26327;42.550;23.120;2023-03-24T08:02:42;31.42;;;15.23;;
39680;SDS011;26327;42.550;23.120;2023-03-24T08:05:09;31.95;;;14.70;;
39680;SDS011;26327;42.550;23.120;2023-03-24T08:07:37;23.38;;;12.60;;
39680;SDS011;26327;42.550;23.120;2023-03-24T08:10:04;32.17;;;13.57;;
39680;SDS011;26327;42.550;23.120;2023-03-24T08:12:30;31.98;;;14.50;;
39680;SDS011;26327;42.550;23.120;2023-03-24T08:14:55;27.02;;;12.20;;
39680;SDS011;26327;42.550;23.120;2023-03-24T08:17:21;34.67;;;13.57;;
39680;SDS011;26327;42.550;23.120;2023-03-24T08:19:46;30.33;;;14.23;;
39680;SDS011;26327;42.550;23.120;2023-03-24T08:22:12;31.05;;;13.68;;
39680;SDS011;26327;42.550;23.120;2023-03-24T08:24:37;32.15;;;13.85;;
39680;SDS011;26327;42.550;23.120;2023-03-24T08:27:03;28.83;;;14.13;;
39680;SDS011;26327;42.550;23.120;2023-03-24T08:29:31;27.83;;;12.23;;
39680;SDS011;26327;42.550;23.120;2023-03-24T08:31:58;22.42;;;10.50;;
39680;SDS011;26327;42.550;23.120;2023-03-24T08:34:25;21.20;;;9.93;;
39680;SDS011;26327;42.550;23.120;2023-03-24T08:36:51;20.13;;;10.15;;
39680;SDS011;26327;42.550;23.120;2023-03-24T08:39:16;16.85;;;8.70;;
39680;SDS011;26327;42.550;23.120;2023-03-24T08:41:42;14.38;;;8.15;;
39680;SDS011;26327;42.550;23.120;2023-03-24T08:44:07;15.32;;;8.98;;
39680;SDS011;26327;42.550;23.120;2023-03-24T08:46:34;11.35;;;5.60;;
39680;SDS011;26327;42.550;23.120;2023-03-24T08:49:00;14.82;;;8.13;;
39680;SDS011;26327;42.550;23.120;2023-03-24T08:51:26;12.70;;;7.68;;
39680;SDS011;26327;42.550;23.120;2023-03-24T08:53:51;13.88;;;6.80;;
39680;SDS011;26327;42.550;23.120;2023-03-24T08:56:18;14.52;;;6.93;;
39680;SDS011;26327;42.550;23.120;2023-03-24T08:58:44;12.57;;;7.07;;
39680;SDS011;26327;42.550;23.120;2023-03-24T09:01:15;13.18;;;7.70;;
39680;SDS011;26327;42.550;23.120;2023-03-24T09:03:41;10.23;;;5.90;;
39680;SDS011;26327;42.550;23.120;2023-03-24T09:06:08;14.25;;;7.40;;
39680;SDS011;26327;42.550;23.120;2023-03-24T09:08:34;14.27;;;6.93;;
39680;SDS011;26327;42.550;23.120;2023-03-24T09:11:00;12.35;;;5.68;;
39680;SDS011;26327;42.550;23.120;2023-03-24T09:13:25;9.23;;;5.15;;
39680;SDS011;26327;42.550;23.120;2023-03-24T09:15:52;6.22;;;3.90;;
39680;SDS011;26327;42.550;23.120;2023-03-24T09:18:21;14.45;;;6.97;;
39680;SDS011;26327;42.550;23.120;2023-03-24T09:20:47;16.02;;;6.35;;
39680;SDS011;26327;42.550;23.120;2023-03-24T09:23:13;15.43;;;6.88;;
39680;SDS011;26327;42.550;23.120;2023-03-24T09:25:39;11.20;;;6.75;;
39680;SDS011;26327;42.550;23.120;2023-03-24T09:28:04;12.85;;;6.40;;
39680;SDS011;26327;42.550;23.120;2023-03-24T09:30:32;14.82;;;6.10;;
39680;SDS011;26327;42.550;23.120;2023-03-24T09:32:58;14.70;;;6.50;;
39680;SDS011;26327;42.550;23.120;2023-03-24T09:35:24;11.68;;;6.22;;
39680;SDS011;26327;42.550;23.120;2023-03-24T09:37:51;13.80;;;5.07;;
39680;SDS011;26327;42.550;23.120;2023-03-24T09:40:18;16.63;;;6.50;;
39680;SDS011;26327;42.550;23.120;2023-03-24T09:45:26;14.95;;;5.78;;
39680;SDS011;26327;42.550;23.120;2023-03-24T09:47:58;9.23;;;4.85;;
39680;SDS011;26327;42.550;23.120;2023-03-24T09:50:50;5.35;;;3.67;;
39680;SDS011;26327;42.550;23.120;2023-03-24T09:53:26;7.13;;;4.15;;
39680;SDS011;26327;42.550;23.120;2023-03-24T09:56:01;8.63;;;5.20;;
39680;SDS011;26327;42.550;23.120;2023-03-24T09:58:33;9.65;;;5.15;;
39680;SDS011;26327;42.550;23.120;2023-03-24T10:01:00;12.35;;;4.90;;
39680;SDS011;26327;42.550;23.120;2023-03-24T10:03:27;8.05;;;5.50;;
39680;SDS011;26327;42.550;23.120;2023-03-24T10:05:55;12.80;;;5.50;;
39680;SDS011;26327;42.550;23.120;2023-03-24T10:10:59;9.43;;;5.20;;
39680;SDS011;26327;42.550;23.120;2023-03-24T10:21:53;6.05;;;4.18;;
39680;SDS011;26327;42.550;23.120;2023-03-24T10:24:31;6.85;;;4.20;;
39680;SDS011;26327;42.550;23.120;2023-03-24T10:27:27;6.53;;;4.18;;
39680;SDS011;26327;42.550;23.120;2023-03-24T10:30:00;7.15;;;4.13;;
39680;SDS011;26327;42.550;23.120;2023-03-24T10:32:33;5.53;;;4.10;;
39680;SDS011;26327;42.550;23.120;2023-03-24T10:35:00;10.80;;;5.20;;
39680;SDS011;26327;42.550;23.120;2023-03-24T10:37:33;6.68;;;3.03;;
39680;SDS011;26327;42.550;23.120;2023-03-24T10:39:59;8.13;;;4.47;;
39680;SDS011;26327;42.550;23.120;2023-03-24T10:42:27;5.70;;;3.65;;
39680;SDS011;26327;42.550;23.120;2023-03-24T10:44:56;5.13;;;3.78;;
39680;SDS011;26327;42.550;23.120;2023-03-24T10:47:26;4.75;;;3.00;;
39680;SDS011;26327;42.550;23.120;2023-03-24T10:52:24;5.53;;;3.47;;
39680;SDS011;26327;42.550;23.120;2023-03-24T10:54:58;4.95;;;3.38;;
39680;SDS011;26327;42.550;23.120;2023-03-24T10:57:30;4.95;;;3.90;;
39680;SDS011;26327;42.550;23.120;2023-03-24T10:59:57;8.75;;;4.78;;
39680;SDS011;26327;42.550;23.120;2023-03-24T11:02:24;6.28;;;3.58;;
39680;SDS011;26327;42.550;23.120;2023-03-24T11:07:23;8.02;;;4.10;;
39680;SDS011;26327;42.550;23.120;2023-03-24T11:12:35;11.88;;;5.15;;
39680;SDS011;26327;42.550;23.120;2023-03-24T11:22:55;7.55;;;4.50;;
39680;SDS011;26327;42.550;23.120;2023-03-24T11:25:28;7.15;;;3.75;;
39680;SDS011;26327;42.550;23.120;2023-03-24T11:27:58;7.30;;;4.07;;
39680;SDS011;26327;42.550;23.120;2023-03-24T11:30:31;5.97;;;4.18;;
39680;SDS011;26327;42.550;23.120;2023-03-24T11:32:58;6.28;;;4.38;;
39680;SDS011;26327;42.550;23.120;2023-03-24T11:35:24;6.55;;;4.05;;
39680;SDS011;26327;42.550;23.120;2023-03-24T11:37:50;5.80;;;3.85;;
39680;SDS011;26327;42.550;23.120;2023-03-24T11:42:45;5.03;;;3.78;;
39680;SDS011;26327;42.550;23.120;2023-03-24T11:45:19;5.90;;;3.95;;
39680;SDS011;26327;42.550;23.120;2023-03-24T11:47:47;5.40;;;3.55;;
39680;SDS011;26327;42.550;23.120;2023-03-24T11:50:18;5.95;;;3.75;;
39680;SDS011;26327;42.550;23.120;2023-03-24T12:09:35;4.53;;;2.08;;
39680;SDS011;26327;42.550;23.120;2023-03-24T12:17:39;4.25;;;2.22;;
39680;SDS011;26327;42.550;23.120;2023-03-24T12:25:17;3.97;;;1.90;;
39680;SDS011;26327;42.550;23.120;2023-03-24T12:58:16;3.20;;;2.10;;
39680;SDS011;26327;42.550;23.120;2023-03-24T13:03:48;5.10;;;2.53;;
39680;SDS011;26327;42.550;23.120;2023-03-24T13:06:19;7.80;;;2.67;;
39680;SDS011;26327;42.550;23.120;2023-03-24T13:11:57;4.47;;;2.80;;
39680;SDS011;26327;42.550;23.120;2023-03-24T13:14:30;3.78;;;2.65;;
39680;SDS011;26327;42.550;23.120;2023-03-24T13:17:04;5.43;;;2.30;;
39680;SDS011;26327;42.550;23.120;2023-03-24T13:19:38;4.85;;;2.42;;
39680;SDS011;26327;42.550;23.120;2023-03-24T13:22:05;5.70;;;2.45;;
39680;SDS011;26327;42.550;23.120;2023-03-24T13:24:38;6.13;;;2.90;;
39680;SDS011;26327;42.550;23.120;2023-03-24T13:27:09;3.53;;;2.60;;
39680;SDS011;26327;42.550;23.120;2023-03-24T13:32:37;4.28;;;2.47;;
39680;SDS011;26327;42.550;23.120;2023-03-24T13:37:50;4.70;;;2.95;;
39680;SDS011;26327;42.550;23.120;2023-03-24T13:43:10;3.75;;;2.72;;
39680;SDS011;26327;42.550;23.120;2023-03-24T13:45:44;6.25;;;2.90;;
39680;SDS011;26327;42.550;23.120;2023-03-24T13:50:52;4.68;;;2.55;;
39680;SDS011;26327;42.550;23.120;2023-03-24T13:53:36;4.72;;;2.55;;
39680;SDS011;26327;42.550;23.120;2023-03-24T13:56:04;5.22;;;2.80;;
39680;SDS011;26327;42.550;23.120;2023-03-24T13:58:48;5.13;;;2.55;;
39680;SDS011;26327;42.550;23.120;2023-03-24T14:05:07;4.32;;;2.85;;
39680;SDS011;26327;42.550;23.120;2023-03-24T14:12:51;6.80;;;3.47;;
39680;SDS011;26327;42.550;23.120;2023-03-24T14:18:37;6.55;;;2.63;;
39680;SDS011;26327;42.550;23.120;2023-03-24T14:21:02;5.18;;;3.00;;
39680;SDS011;26327;42.550;23.120;2023-03-24T14:23:36;6.78;;;3.55;;
39680;SDS011;26327;42.550;23.120;2023-03-24T14:26:05;7.78;;;3.15;;
39680;SDS011;26327;42.550;23.120;2023-03-24T14:34:06;8.30;;;3.08;;
39680;SDS011;26327;42.550;23.120;2023-03-24T14:36:38;4.90;;;3.00;;
39680;SDS011;26327;42.550;23.120;2023-03-24T14:41:57;6.82;;;4.70;;
39680;SDS011;26327;42.550;23.120;2023-03-24T14:47:08;6.30;;;3.38;;
39680;SDS011;26327;42.550;23.120;2023-03-24T14:49:35;5.57;;;2.90;;
39680;SDS011;26327;42.550;23.120;2023-03-24T14:52:09;5.68;;;2.92;;
39680;SDS011;26327;42.550;23.120;2023-03-24T14:54:51;11.95;;;3.00;;
39680;SDS011;26327;42.550;23.120;2023-03-24T15:02:49;4.47;;;2.53;;
39680;SDS011;26327;42.550;23.120;2023-03-24T15:05:40;6.85;;;2.75;;
39680;SDS011;26327;42.550;23.120;2023-03-24T15:13:28;7.57;;;4.00;;
39680;SDS011;26327;42.550;23.120;2023-03-24T15:15:56;11.32;;;4.93;;
39680;SDS011;26327;42.550;23.120;2023-03-24T15:18:23;16.02;;;3.90;;
39680;SDS011;26327;42.550;23.120;2023-03-24T15:20:50;12.43;;;5.40;;
39680;SDS011;26327;42.550;23.120;2023-03-24T15:23:17;8.90;;;4.32;;
39680;SDS011;26327;42.550;23.120;2023-03-24T15:25:48;6.78;;;3.35;;
39680;SDS011;26327;42.550;23.120;2023-03-24T15:28:17;11.10;;;3.70;;
39680;SDS011;26327;42.550;23.120;2023-03-24T15:30:47;10.65;;;3.60;;
39680;SDS011;26327;42.550;23.120;2023-03-24T15:33:14;14.70;;;4.72;;
39680;SDS011;26327;42.550;23.120;2023-03-24T15:35:41;8.10;;;2.97;;
39680;SDS011;26327;42.550;23.120;2023-03-24T15:38:16;8.18;;;2.97;;
39680;SDS011;26327;42.550;23.120;2023-03-24T15:40:55;9.43;;;3.47;;
39680;SDS011;26327;42.550;23.120;2023-03-24T15:43:24;10.13;;;3.35;;
39680;SDS011;26327;42.550;23.120;2023-03-24T15:45:54;7.18;;;3.35;;
39680;SDS011;26327;42.550;23.120;2023-03-24T15:48:22;6.70;;;3.40;;
39680;SDS011;26327;42.550;23.120;2023-03-24T15:53:37;6.82;;;3.42;;
39680;SDS011;26327;42.550;23.120;2023-03-24T15:58:52;4.45;;;3.10;;
39680;SDS011;26327;42.550;23.120;2023-03-24T16:01:23;6.25;;;3.13;;
39680;SDS011;26327;42.550;23.120;2023-03-24T16:03:51;7.97;;;4.15;;
39680;SDS011;26327;42.550;23.120;2023-03-24T16:06:28;23.80;;;4.75;;
39680;SDS011;26327;42.550;23.120;2023-03-24T16:09:04;25.13;;;4.72;;
39680;SDS011;26327;42.550;23.120;2023-03-24T16:11:34;24.30;;;4.95;;
39680;SDS011;26327;42.550;23.120;2023-03-24T16:14:00;12.05;;;3.58;;
39680;SDS011;26327;42.550;23.120;2023-03-24T16:16:36;10.98;;;3.50;;
39680;SDS011;26327;42.550;23.120;2023-03-24T16:19:02;8.45;;;3.85;;
39680;SDS011;26327;42.550;23.120;2023-03-24T16:21:28;17.75;;;8.68;;
39680;SDS011;26327;42.550;23.120;2023-03-24T16:23:55;19.05;;;10.85;;
39680;SDS011;26327;42.550;23.120;2023-03-24T16:26:22;19.83;;;11.68;;
39680;SDS011;26327;42.550;23.120;2023-03-24T16:28:53;21.98;;;13.75;;
39680;SDS011;26327;42.550;23.120;2023-03-24T16:33:52;23.60;;;14.68;;
39680;SDS011;26327;42.550;23.120;2023-03-24T16:36:18;24.48;;;14.20;;
39680;SDS011;26327;42.550;23.120;2023-03-24T16:38:46;26.75;;;17.10;;
39680;SDS011;26327;42.550;23.120;2023-03-24T16:41:12;34.88;;;17.02;;
39680;SDS011;26327;42.550;23.120;2023-03-24T16:43:41;21.73;;;10.27;;
39680;SDS011;26327;42.550;23.120;2023-03-24T16:46:13;18.92;;;11.57;;
39680;SDS011;26327;42.550;23.120;2023-03-24T16:48:40;24.67;;;11.65;;
39680;SDS011;26327;42.550;23.120;2023-03-24T16:51:13;33.22;;;18.90;;
39680;SDS011;26327;42.550;23.120;2023-03-24T16:53:40;27.88;;;16.20;;
39680;SDS011;26327;42.550;23.120;2023-03-24T16:56:07;52.63;;;32.67;;
39680;SDS011;26327;42.550;23.120;2023-03-24T16:58:33;60.58;;;45.00;;
39680;SDS011;26327;42.550;23.120;2023-03-24T17:00:59;94.05;;;55.83;;
39680;SDS011;26327;42.550;23.120;2023-03-24T17:03:25;57.28;;;33.05;;
39680;SDS011;26327;42.550;23.120;2023-03-24T17:05:53;64.28;;;36.05;;
39680;SDS011;26327;42.550;23.120;2023-03-24T17:08:20;50.72;;;29.77;;
39680;SDS011;26327;42.550;23.120;2023-03-24T17:10:47;56.58;;;29.40;;
39680;SDS011;26327;42.550;23.120;2023-03-24T17:13:19;45.63;;;24.35;;
39680;SDS011;26327;42.550;23.120;2023-03-24T17:15:48;52.83;;;28.92;;
39680;SDS011;26327;42.550;23.120;2023-03-24T17:18:15;42.92;;;28.23;;
39680;SDS011;26327;42.550;23.120;2023-03-24T17:20:41;44.67;;;28.60;;
39680;SDS011;26327;42.550;23.120;2023-03-24T17:23:07;28.85;;;18.17;;
39680;SDS011;26327;42.550;23.120;2023-03-24T17:25:34;33.13;;;16.33;;
39680;SDS011;26327;42.550;23.120;2023-03-24T17:28:00;29.50;;;15.35;;
39680;SDS011;26327;42.550;23.120;2023-03-24T17:30:27;27.90;;;13.30;;
39680;SDS011;26327;42.550;23.120;2023-03-24T17:32:53;31.40;;;12.40;;
39680;SDS011;26327;42.550;23.120;2023-03-24T17:35:20;35.70;;;13.90;;
39680;SDS011;26327;42.550;23.120;2023-03-24T17:37:47;44.72;;;26.92;;
39680;SDS011;26327;42.550;23.120;2023-03-24T17:40:14;36.30;;;22.02;;
39680;SDS011;26327;42.550;23.120;2023-03-24T17:42:42;24.58;;;14.30;;
39680;SDS011;26327;42.550;23.120;2023-03-24T17:45:09;16.55;;;9.18;;
39680;SDS011;26327;42.550;23.120;2023-03-24T17:47:37;14.88;;;8.75;;
39680;SDS011;26327;42.550;23.120;2023-03-24T17:50:03;15.93;;;10.23;;
39680;SDS011;26327;42.550;23.120;2023-03-24T17:52:39;33.05;;;17.63;;
39680;SDS011;26327;42.550;23.120;2023-03-24T17:55:09;33.50;;;18.90;;
39680;SDS011;26327;42.550;23.120;2023-03-24T17:57:35;23.23;;;13.00;;
39680;SDS011;26327;42.550;23.120;2023-03-24T18:00:00;14.52;;;9.00;;
39680;SDS011;26327;42.550;23.120;2023-03-24T18:02:30;15.88;;;7.93;;
39680;SDS011;26327;42.550;23.120;2023-03-24T18:04:55;11.10;;;6.90;;
39680;SDS011;26327;42.550;23.120;2023-03-24T18:07:22;10.10;;;6.28;;
39680;SDS011;26327;42.550;23.120;2023-03-24T18:09:48;10.32;;;6.15;;
39680;SDS011;26327;42.550;23.120;2023-03-24T18:12:15;13.80;;;7.80;;
39680;SDS011;26327;42.550;23.120;2023-03-24T18:14:41;33.70;;;14.88;;
39680;SDS011;26327;42.550;23.120;2023-03-24T18:17:06;16.20;;;10.90;;
39680;SDS011;26327;42.550;23.120;2023-03-24T18:19:33;12.93;;;7.75;;
39680;SDS011;26327;42.550;23.120;2023-03-24T18:21:58;11.18;;;7.45;;
39680;SDS011;26327;42.550;23.120;2023-03-24T18:24:24;17.85;;;9.13;;
39680;SDS011;26327;42.550;23.120;2023-03-24T18:26:49;17.60;;;12.23;;
39680;SDS011;26327;42.550;23.120;2023-03-24T18:29:15;15.75;;;8.13;;
39680;SDS011;26327;42.550;23.120;2023-03-24T18:31:41;21.45;;;12.32;;
39680;SDS011;26327;42.550;23.120;2023-03-24T18:34:06;21.90;;;13.50;;
39680;SDS011;26327;42.550;23.120;2023-03-24T18:36:32;5.65;;;3.55;;
39680;SDS011;26327;42.550;23.120;2023-03-24T18:38:58;6.90;;;4.97;;
39680;SDS011;26327;42.550;23.120;2023-03-24T18:41:26;13.93;;;6.35;;
39680;SDS011;26327;42.550;23.120;2023-03-24T18:43:54;10.23;;;5.30;;
39680;SDS011;26327;42.550;23.120;2023-03-24T18:46:21;12.98;;;7.75;;
39680;SDS011;26327;42.550;23.120;2023-03-24T18:48:46;13.35;;;7.18;;
39680;SDS011;26327;42.550;23.120;2023-03-24T18:51:12;13.35;;;7.93;;
39680;SDS011;26327;42.550;23.120;2023-03-24T18:53:38;12.52;;;7.53;;
39680;SDS011;26327;42.550;23.120;2023-03-24T18:56:04;8.13;;;4.68;;
39680;SDS011;26327;42.550;23.120;2023-03-24T18:58:31;8.52;;;4.35;;
39680;SDS011;26327;42.550;23.120;2023-03-24T19:00:57;8.50;;;4.80;;
39680;SDS011;26327;42.550;23.120;2023-03-24T19:03:27;7.80;;;4.28;;
39680;SDS011;26327;42.550;23.120;2023-03-24T19:05:52;6.75;;;4.30;;
39680;SDS011;26327;42.550;23.120;2023-03-24T19:08:18;8.38;;;4.50;;
39680;SDS011;26327;42.550;23.120;2023-03-24T19:10:46;8.15;;;4.60;;
39680;SDS011;26327;42.550;23.120;2023-03-24T19:13:13;7.78;;;4.05;;
39680;SDS011;26327;42.550;23.120;2023-03-24T19:15:39;10.90;;;5.97;;
39680;SDS011;26327;42.550;23.120;2023-03-24T19:18:05;10.20;;;5.45;;
39680;SDS011;26327;42.550;23.120;2023-03-24T19:20:31;21.42;;;9.93;;
39680;SDS011;26327;42.550;23.120;2023-03-24T19:22:59;12.25;;;6.45;;
39680;SDS011;26327;42.550;23.120;2023-03-24T19:25:24;14.52;;;7.63;;
39680;SDS011;26327;42.550;23.120;2023-03-24T19:27:50;11.40;;;6.78;;
39680;SDS011;26327;42.550;23.120;2023-03-24T19:30:15;19.52;;;9.15;;
39680;SDS011;26327;42.550;23.120;2023-03-24T19:32:42;28.23;;;14.82;;
39680;SDS011;26327;42.550;23.120;2023-03-24T19:35:08;27.75;;;14.93;;
39680;SDS011;26327;42.550;23.120;2023-03-24T19:37:33;22.20;;;11.90;;
39680;SDS011;26327;42.550;23.120;2023-03-24T19:40:00;11.25;;;6.45;;
39680;SDS011;26327;42.550;23.120;2023-03-24T19:42:29;23.60;;;11.70;;
39680;SDS011;26327;42.550;23.120;2023-03-24T19:44:55;33.80;;;16.05;;
39680;SDS011;26327;42.550;23.120;2023-03-24T19:47:21;33.88;;;16.52;;
39680;SDS011;26327;42.550;23.120;2023-03-24T19:49:47;19.45;;;9.70;;
39680;SDS011;26327;42.550;23.120;2023-03-24T19:52:12;10.68;;;5.97;;
39680;SDS011;26327;42.550;23.120;2023-03-24T19:54:38;8.73;;;5.40;;
39680;SDS011;26327;42.550;23.120;2023-03-24T19:57:03;15.45;;;9.40;;
39680;SDS011;26327;42.550;23.120;2023-03-24T19:59:29;9.02;;;5.72;;
39680;SDS011;26327;42.550;23.120;2023-03-24T20:01:54;9.23;;;5.70;;
39680;SDS011;26327;42.550;23.120;2023-03-24T20:04:20;13.50;;;7.45;;
39680;SDS011;26327;42.550;23.120;2023-03-24T20:06:48;20.90;;;12.52;;
39680;SDS011;26327;42.550;23.120;2023-03-24T20:09:14;8.25;;;4.60;;
39680;SDS011;26327;42.550;23.120;2023-03-24T20:11:42;6.60;;;4.30;;
39680;SDS011;26327;42.550;23.120;2023-03-24T20:14:08;8.43;;;4.47;;
39680;SDS011;26327;42.550;23.120;2023-03-24T20:16:34;7.47;;;4.70;;
39680;SDS011;26327;42.550;23.120;2023-03-24T20:18:59;7.10;;;4.38;;
39680;SDS011;26327;42.550;23.120;2023-03-24T20:21:25;9.85;;;5.22;;
39680;SDS011;26327;42.550;23.120;2023-03-24T20:23:53;16.88;;;8.35;;
39680;SDS011;26327;42.550;23.120;2023-03-24T20:26:18;12.10;;;7.82;;
39680;SDS011;26327;42.550;23.120;2023-03-24T20:28:44;14.60;;;8.27;;
39680;SDS011;26327;42.550;23.120;2023-03-24T20:31:10;13.05;;;7.70;;
39680;SDS011;26327;42.550;23.120;2023-03-24T20:33:35;15.55;;;10.65;;
39680;SDS011;26327;42.550;23.120;2023-03-24T20:36:01;14.32;;;8.45;;
39680;SDS011;26327;42.550;23.120;2023-03-24T20:38:28;12.23;;;7.68;;
39680;SDS011;26327;42.550;23.120;2023-03-24T20:41:00;18.27;;;9.13;;
39680;SDS011;26327;42.550;23.120;2023-03-24T20:43:27;32.00;;;16.45;;
39680;SDS011;26327;42.550;23.120;2023-03-24T20:45:56;22.92;;;12.65;;
39680;SDS011;26327;42.550;23.120;2023-03-24T20:48:22;15.60;;;8.15;;
39680;SDS011;26327;42.550;23.120;2023-03-24T20:50:49;25.35;;;12.23;;
39680;SDS011;26327;42.550;23.120;2023-03-24T20:53:14;24.33;;;12.63;;
39680;SDS011;26327;42.550;23.120;2023-03-24T20:55:40;24.83;;;12.98;;
39680;SDS011;26327;42.550;23.120;2023-03-24T20:58:06;16.40;;;8.20;;
39680;SDS011;26327;42.550;23.120;2023-03-24T21:00:34;12.00;;;7.15;;
39680;SDS011;26327;42.550;23.120;2023-03-24T21:03:01;12.13;;;6.60;;
39680;SDS011;26327;42.550;23.120;2023-03-24T21:05:28;17.33;;;8.68;;
39680;SDS011;26327;42.550;23.120;2023-03-24T21:07:54;17.40;;;9.35;;
39680;SDS011;26327;42.550;23.120;2023-03-24T21:10:20;17.10;;;9.05;;
39680;SDS011;26327;42.550;23.120;2023-03-24T21:12:45;6.35;;;4.72;;
39680;SDS011;26327;42.550;23.120;2023-03-24T21:15:10;7.70;;;4.57;;
39680;SDS011;26327;42.550;23.120;2023-03-24T21:17:36;7.97;;;3.83;;
39680;SDS011;26327;42.550;23.120;2023-03-24T21:20:01;6.97;;;4.30;;
39680;SDS011;26327;42.550;23.120;2023-03-24T21:22:32;7.75;;;4.28;;
39680;SDS011;26327;42.550;23.120;2023-03-24T21:25:11;8.30;;;4.80;;
39680;SDS011;26327;42.550;23.120;2023-03-24T21:27:40;5.90;;;3.80;;
39680;SDS011;26327;42.550;23.120;2023-03-24T21:30:05;9.90;;;6.03;;
39680;SDS011;26327;42.550;23.120;2023-03-24T21:32:34;7.47;;;4.38;;
39680;SDS011;26327;42.550;23.120;2023-03-24T21:34:59;9.98;;;4.90;;
39680;SDS011;26327;42.550;23.120;2023-03-24T21:37:25;13.40;;;6.35;;
39680;SDS011;26327;42.550;23.120;2023-03-24T21:39:51;10.48;;;5.25;;
39680;SDS011;26327;42.550;23.120;2023-03-24T21:42:16;6.63;;;4.00;;
39680;SDS011;26327;42.550;23.120;2023-03-24T21:44:43;8.98;;;4.80;;
39680;SDS011;26327;42.550;23.120;2023-03-24T21:47:09;8.02;;;3.92;;
39680;SDS011;26327;42.550;23.120;2023-03-24T21:49:36;9.27;;;4.47;;
39680;SDS011;26327;42.550;23.120;2023-03-24T21:52:01;9.98;;;5.07;;
39680;SDS011;26327;42.550;23.120;2023-03-24T21:54:28;11.50;;;5.95;;
39680;SDS011;26327;42.550;23.120;2023-03-24T21:56:54;22.65;;;8.50;;
39680;SDS011;26327;42.550;23.120;2023-03-24T21:59:20;8.30;;;5.75;;
39680;SDS011;26327;42.550;23.120;2023-03-24T22:01:45;9.10;;;5.32;;
39680;SDS011;26327;42.550;23.120;2023-03-24T22:04:11;9.80;;;5.20;;
39680;SDS011;26327;42.550;23.120;2023-03-24T22:06:38;10.93;;;6.53;;
39680;SDS011;26327;42.550;23.120;2023-03-24T22:09:04;13.57;;;7.75;;
39680;SDS011;26327;42.550;23.120;2023-03-24T22:11:30;24.85;;;11.07;;
39680;SDS011;26327;42.550;23.120;2023-03-24T22:13:57;10.27;;;5.57;;
39680;SDS011;26327;42.550;23.120;2023-03-24T22:16:22;7.65;;;4.80;;
39680;SDS011;26327;42.550;23.120;2023-03-24T22:18:48;9.20;;;5.65;;
39680;SDS011;26327;42.550;23.120;2023-03-24T22:21:13;9.25;;;6.05;;
39680;SDS011;26327;42.550;23.120;2023-03-24T22:23:40;10.27;;;6.75;;
39680;SDS011;26327;42.550;23.120;2023-03-24T22:26:07;10.20;;;7.28;;
39680;SDS011;26327;42.550;23.120;2023-03-24T22:28:35;10.38;;;5.88;;
39680;SDS011;26327;42.550;23.120;2023-03-24T22:31:02;9.18;;;5.97;;